sensor_id;sensor_type;location;lat;lon;timestamp;P1;durP1;ratioP1;P2;durP2;ratioP2
71298;SDS011;59083;47.974;21.722;2023-06-22T00:02:18;14.15;;;10.63;;
71298;SDS011;59083;47.974;21.722;2023-06-22T00:05:19;15.20;;;10.23;;
71298;SDS011;59083;47.974;21.722;2023-06-22T00:08:20;18.92;;;10.68;;
71298;SDS011;59083;47.974;21.722;2023-06-22T00:11:22;15.55;;;10.73;;
71298;SDS011;59083;47.974;21.722;2023-06-22T00:14:24;15.43;;;10.23;;
71298;SDS011;59083;47.974;21.722;2023-06-22T00:17:25;15.93;;;10.60;;
71298;SDS011;59083;47.974;21.722;2023-06-22T00:20:26;16.65;;;10.65;;
71298;SDS011;59083;47.974;21.722;2023-06-22T00:23:31;17.23;;;10.35;;
71298;SDS011;59083;47.974;21.722;2023-06-22T00:26:34;17.50;;;10.95;;
71298;SDS011;59083;47.974;21.722;2023-06-22T00:29:36;15.33;;;10.37;;
71298;SDS011;59083;47.974;21.722;2023-06-22T00:32:37;19.00;;;10.52;;
71298;SDS011;59083;47.974;21.722;2023-06-22T00:35:38;16.48;;;10.85;;
71298;SDS011;59083;47.974;21.722;2023-06-22T00:38:42;15.52;;;10.30;;
71298;SDS011;59083;47.974;21.722;2023-06-22T00:41:44;16.10;;;10.43;;
71298;SDS011;59083;47.974;21.722;2023-06-22T00:44:45;16.57;;;10.07;;
71298;SDS011;59083;47.974;21.722;2023-06-22T00:47:46;15.55;;;10.00;;
71298;SDS011;59083;47.974;21.722;2023-06-22T00:50:47;15.02;;;9.48;;
71298;SDS011;59083;47.974;21.722;2023-06-22T00:53:51;15.13;;;10.30;;
71298;SDS011;59083;47.974;21.722;2023-06-22T00:56:54;17.83;;;10.30;;
71298;SDS011;59083;47.974;21.722;2023-06-22T00:59:57;14.60;;;9.57;;
71298;SDS011;59083;47.974;21.722;2023-06-22T01:02:58;13.60;;;9.93;;
71298;SDS011;59083;47.974;21.722;2023-06-22T01:06:06;16.35;;;10.65;;
71298;SDS011;59083;47.974;21.722;2023-06-22T01:09:15;16.23;;;10.38;;
71298;SDS011;59083;47.974;21.722;2023-06-22T01:12:20;14.57;;;9.80;;
71298;SDS011;59083;47.974;21.722;2023-06-22T01:15:30;15.03;;;9.90;;
71298;SDS011;59083;47.974;21.722;2023-06-22T01:18:37;16.80;;;11.07;;
71298;SDS011;59083;47.974;21.722;2023-06-22T01:21:42;18.12;;;10.63;;
71298;SDS011;59083;47.974;21.722;2023-06-22T01:31:19;16.40;;;10.77;;
71298;SDS011;59083;47.974;21.722;2023-06-22T01:34:23;16.35;;;11.23;;
71298;SDS011;59083;47.974;21.722;2023-06-22T01:37:25;20.23;;;11.23;;
71298;SDS011;59083;47.974;21.722;2023-06-22T01:40:28;17.20;;;11.10;;
71298;SDS011;59083;47.974;21.722;2023-06-22T01:43:32;15.63;;;10.23;;
71298;SDS011;59083;47.974;21.722;2023-06-22T01:46:36;16.60;;;11.00;;
71298;SDS011;59083;47.974;21.722;2023-06-22T01:49:40;16.87;;;11.02;;
71298;SDS011;59083;47.974;21.722;2023-06-22T01:52:41;18.87;;;11.02;;
71298;SDS011;59083;47.974;21.722;2023-06-22T01:55:43;17.33;;;10.73;;
71298;SDS011;59083;47.974;21.722;2023-06-22T01:58:47;15.48;;;10.88;;
71298;SDS011;59083;47.974;21.722;2023-06-22T02:01:57;15.37;;;10.10;;
71298;SDS011;59083;47.974;21.722;2023-06-22T02:05:04;17.85;;;11.38;;
71298;SDS011;59083;47.974;21.722;2023-06-22T02:08:28;16.65;;;11.30;;
71298;SDS011;59083;47.974;21.722;2023-06-22T02:11:33;17.00;;;11.60;;
71298;SDS011;59083;47.974;21.722;2023-06-22T02:14:36;15.15;;;10.40;;
71298;SDS011;59083;47.974;21.722;2023-06-22T02:17:38;16.33;;;11.17;;
71298;SDS011;59083;47.974;21.722;2023-06-22T02:20:39;16.85;;;10.48;;
71298;SDS011;59083;47.974;21.722;2023-06-22T02:23:41;15.38;;;10.23;;
71298;SDS011;59083;47.974;21.722;2023-06-22T02:26:42;18.27;;;11.07;;
71298;SDS011;59083;47.974;21.722;2023-06-22T02:29:46;15.95;;;10.95;;
71298;SDS011;59083;47.974;21.722;2023-06-22T02:32:47;16.33;;;11.50;;
71298;SDS011;59083;47.974;21.722;2023-06-22T02:35:50;17.77;;;11.48;;
71298;SDS011;59083;47.974;21.722;2023-06-22T02:38:51;18.98;;;11.82;;
71298;SDS011;59083;47.974;21.722;2023-06-22T02:41:53;18.17;;;11.90;;
71298;SDS011;59083;47.974;21.722;2023-06-22T02:44:56;17.40;;;12.45;;
71298;SDS011;59083;47.974;21.722;2023-06-22T02:47:57;19.10;;;13.07;;
71298;SDS011;59083;47.974;21.722;2023-06-22T02:50:59;22.83;;;12.63;;
71298;SDS011;59083;47.974;21.722;2023-06-22T02:54:00;24.60;;;13.70;;
71298;SDS011;59083;47.974;21.722;2023-06-22T02:57:02;19.12;;;13.15;;
71298;SDS011;59083;47.974;21.722;2023-06-22T03:00:04;19.80;;;13.57;;
71298;SDS011;59083;47.974;21.722;2023-06-22T03:03:17;18.13;;;13.57;;
71298;SDS011;59083;47.974;21.722;2023-06-22T03:06:18;24.77;;;14.75;;
71298;SDS011;59083;47.974;21.722;2023-06-22T03:09:24;21.40;;;14.48;;
71298;SDS011;59083;47.974;21.722;2023-06-22T03:12:26;21.52;;;13.68;;
71298;SDS011;59083;47.974;21.722;2023-06-22T03:15:27;20.35;;;13.45;;
71298;SDS011;59083;47.974;21.722;2023-06-22T03:18:30;20.50;;;14.17;;
71298;SDS011;59083;47.974;21.722;2023-06-22T03:21:32;22.02;;;14.18;;
71298;SDS011;59083;47.974;21.722;2023-06-22T03:24:34;20.10;;;13.68;;
71298;SDS011;59083;47.974;21.722;2023-06-22T03:27:38;21.20;;;13.60;;
71298;SDS011;59083;47.974;21.722;2023-06-22T03:30:43;19.67;;;13.43;;
71298;SDS011;59083;47.974;21.722;2023-06-22T03:33:44;23.23;;;15.03;;
71298;SDS011;59083;47.974;21.722;2023-06-22T03:36:45;22.37;;;14.90;;
71298;SDS011;59083;47.974;21.722;2023-06-22T03:39:46;27.62;;;15.13;;
71298;SDS011;59083;47.974;21.722;2023-06-22T03:42:48;20.65;;;13.27;;
71298;SDS011;59083;47.974;21.722;2023-06-22T03:45:49;26.77;;;15.18;;
71298;SDS011;59083;47.974;21.722;2023-06-22T03:48:51;21.03;;;13.80;;
71298;SDS011;59083;47.974;21.722;2023-06-22T03:51:52;22.55;;;14.10;;
71298;SDS011;59083;47.974;21.722;2023-06-22T03:54:53;21.62;;;13.52;;
71298;SDS011;59083;47.974;21.722;2023-06-22T03:57:54;21.60;;;13.75;;
71298;SDS011;59083;47.974;21.722;2023-06-22T04:00:57;20.00;;;13.48;;
71298;SDS011;59083;47.974;21.722;2023-06-22T04:03:59;23.27;;;13.97;;
71298;SDS011;59083;47.974;21.722;2023-06-22T04:07:00;25.33;;;14.30;;
71298;SDS011;59083;47.974;21.722;2023-06-22T04:10:02;21.70;;;13.50;;
71298;SDS011;59083;47.974;21.722;2023-06-22T04:13:04;23.40;;;13.23;;
71298;SDS011;59083;47.974;21.722;2023-06-22T04:16:06;20.77;;;13.68;;
71298;SDS011;59083;47.974;21.722;2023-06-22T04:19:07;23.37;;;13.07;;
71298;SDS011;59083;47.974;21.722;2023-06-22T04:22:08;21.30;;;14.02;;
71298;SDS011;59083;47.974;21.722;2023-06-22T04:25:10;19.50;;;13.25;;
71298;SDS011;59083;47.974;21.722;2023-06-22T04:28:12;17.05;;;12.15;;
71298;SDS011;59083;47.974;21.722;2023-06-22T04:31:13;17.90;;;12.35;;
71298;SDS011;59083;47.974;21.722;2023-06-22T04:34:14;27.00;;;18.03;;
71298;SDS011;59083;47.974;21.722;2023-06-22T04:37:17;19.62;;;12.75;;
71298;SDS011;59083;47.974;21.722;2023-06-22T04:40:18;20.80;;;13.15;;
71298;SDS011;59083;47.974;21.722;2023-06-22T04:43:20;22.58;;;12.40;;
71298;SDS011;59083;47.974;21.722;2023-06-22T04:46:22;19.33;;;13.17;;
71298;SDS011;59083;47.974;21.722;2023-06-22T04:49:23;21.90;;;13.47;;
71298;SDS011;59083;47.974;21.722;2023-06-22T04:52:33;18.95;;;13.20;;
71298;SDS011;59083;47.974;21.722;2023-06-22T04:55:34;23.00;;;13.25;;
71298;SDS011;59083;47.974;21.722;2023-06-22T04:58:35;18.70;;;12.37;;
71298;SDS011;59083;47.974;21.722;2023-06-22T05:01:36;18.05;;;12.05;;
71298;SDS011;59083;47.974;21.722;2023-06-22T05:04:38;19.17;;;13.17;;
71298;SDS011;59083;47.974;21.722;2023-06-22T05:07:42;21.73;;;13.70;;
71298;SDS011;59083;47.974;21.722;2023-06-22T05:10:45;19.35;;;13.27;;
71298;SDS011;59083;47.974;21.722;2023-06-22T05:13:46;21.23;;;13.00;;
71298;SDS011;59083;47.974;21.722;2023-06-22T05:16:48;21.80;;;13.63;;
71298;SDS011;59083;47.974;21.722;2023-06-22T05:19:49;22.63;;;13.57;;
71298;SDS011;59083;47.974;21.722;2023-06-22T05:22:50;27.48;;;18.12;;
71298;SDS011;59083;47.974;21.722;2023-06-22T05:25:51;20.95;;;13.52;;
71298;SDS011;59083;47.974;21.722;2023-06-22T05:28:53;19.37;;;12.23;;
71298;SDS011;59083;47.974;21.722;2023-06-22T05:31:54;20.60;;;12.40;;
71298;SDS011;59083;47.974;21.722;2023-06-22T05:34:55;21.23;;;12.07;;
71298;SDS011;59083;47.974;21.722;2023-06-22T05:37:56;19.40;;;12.40;;
71298;SDS011;59083;47.974;21.722;2023-06-22T05:40:58;18.55;;;11.70;;
71298;SDS011;59083;47.974;21.722;2023-06-22T05:43:59;20.02;;;12.40;;
71298;SDS011;59083;47.974;21.722;2023-06-22T05:47:00;22.23;;;16.55;;
71298;SDS011;59083;47.974;21.722;2023-06-22T05:50:02;21.93;;;12.47;;
71298;SDS011;59083;47.974;21.722;2023-06-22T05:53:07;20.30;;;12.20;;
71298;SDS011;59083;47.974;21.722;2023-06-22T05:56:08;18.90;;;12.13;;
71298;SDS011;59083;47.974;21.722;2023-06-22T05:59:10;20.42;;;13.38;;
71298;SDS011;59083;47.974;21.722;2023-06-22T06:02:11;19.20;;;12.37;;
71298;SDS011;59083;47.974;21.722;2023-06-22T06:05:12;19.73;;;11.80;;
71298;SDS011;59083;47.974;21.722;2023-06-22T06:08:16;19.77;;;12.93;;
71298;SDS011;59083;47.974;21.722;2023-06-22T06:11:18;19.90;;;11.95;;
71298;SDS011;59083;47.974;21.722;2023-06-22T06:14:19;18.17;;;12.10;;
71298;SDS011;59083;47.974;21.722;2023-06-22T06:17:21;19.40;;;11.97;;
71298;SDS011;59083;47.974;21.722;2023-06-22T06:20:24;19.53;;;12.20;;
71298;SDS011;59083;47.974;21.722;2023-06-22T06:23:26;17.33;;;12.00;;
71298;SDS011;59083;47.974;21.722;2023-06-22T06:26:27;20.88;;;12.35;;
71298;SDS011;59083;47.974;21.722;2023-06-22T06:29:31;20.75;;;12.45;;
71298;SDS011;59083;47.974;21.722;2023-06-22T06:32:35;27.23;;;13.75;;
71298;SDS011;59083;47.974;21.722;2023-06-22T06:35:36;19.50;;;12.67;;
71298;SDS011;59083;47.974;21.722;2023-06-22T06:38:38;20.90;;;13.55;;
71298;SDS011;59083;47.974;21.722;2023-06-22T06:41:39;20.25;;;12.80;;
71298;SDS011;59083;47.974;21.722;2023-06-22T06:44:44;17.67;;;13.70;;
71298;SDS011;59083;47.974;21.722;2023-06-22T06:47:45;24.98;;;18.08;;
71298;SDS011;59083;47.974;21.722;2023-06-22T06:50:47;26.10;;;13.67;;
71298;SDS011;59083;47.974;21.722;2023-06-22T06:53:48;24.87;;;13.62;;
71298;SDS011;59083;47.974;21.722;2023-06-22T06:56:49;19.95;;;12.80;;
71298;SDS011;59083;47.974;21.722;2023-06-22T06:59:51;18.98;;;13.18;;
71298;SDS011;59083;47.974;21.722;2023-06-22T07:02:52;22.52;;;14.32;;
71298;SDS011;59083;47.974;21.722;2023-06-22T07:05:53;16.23;;;11.97;;
71298;SDS011;59083;47.974;21.722;2023-06-22T07:08:55;19.77;;;12.65;;
71298;SDS011;59083;47.974;21.722;2023-06-22T07:11:56;18.17;;;12.35;;
71298;SDS011;59083;47.974;21.722;2023-06-22T07:15:01;18.52;;;12.37;;
71298;SDS011;59083;47.974;21.722;2023-06-22T07:18:09;16.77;;;11.27;;
71298;SDS011;59083;47.974;21.722;2023-06-22T07:21:10;16.47;;;11.67;;
71298;SDS011;59083;47.974;21.722;2023-06-22T07:24:11;20.52;;;13.55;;
71298;SDS011;59083;47.974;21.722;2023-06-22T07:27:12;17.05;;;11.88;;
71298;SDS011;59083;47.974;21.722;2023-06-22T07:30:14;17.92;;;11.95;;
71298;SDS011;59083;47.974;21.722;2023-06-22T07:33:15;16.90;;;11.97;;
71298;SDS011;59083;47.974;21.722;2023-06-22T07:36:16;17.80;;;12.23;;
71298;SDS011;59083;47.974;21.722;2023-06-22T07:39:18;17.00;;;11.75;;
71298;SDS011;59083;47.974;21.722;2023-06-22T07:42:19;20.10;;;14.30;;
71298;SDS011;59083;47.974;21.722;2023-06-22T07:45:20;18.42;;;12.35;;
71298;SDS011;59083;47.974;21.722;2023-06-22T07:48:22;17.10;;;12.20;;
71298;SDS011;59083;47.974;21.722;2023-06-22T07:51:23;34.93;;;13.50;;
71298;SDS011;59083;47.974;21.722;2023-06-22T07:54:25;27.05;;;12.02;;
71298;SDS011;59083;47.974;21.722;2023-06-22T07:57:26;20.65;;;11.32;;
71298;SDS011;59083;47.974;21.722;2023-06-22T08:00:33;18.15;;;11.38;;
71298;SDS011;59083;47.974;21.722;2023-06-22T08:03:35;18.10;;;11.37;;
71298;SDS011;59083;47.974;21.722;2023-06-22T08:06:36;18.63;;;11.77;;
71298;SDS011;59083;47.974;21.722;2023-06-22T08:09:37;18.50;;;11.52;;
71298;SDS011;59083;47.974;21.722;2023-06-22T08:12:39;17.15;;;12.82;;
71298;SDS011;59083;47.974;21.722;2023-06-22T08:15:41;22.90;;;12.77;;
71298;SDS011;59083;47.974;21.722;2023-06-22T08:18:42;17.02;;;12.45;;
71298;SDS011;59083;47.974;21.722;2023-06-22T08:21:44;18.47;;;11.77;;
71298;SDS011;59083;47.974;21.722;2023-06-22T08:24:45;17.42;;;11.38;;
71298;SDS011;59083;47.974;21.722;2023-06-22T08:27:47;19.52;;;12.50;;
71298;SDS011;59083;47.974;21.722;2023-06-22T08:30:49;17.90;;;12.15;;
71298;SDS011;59083;47.974;21.722;2023-06-22T08:33:50;15.23;;;11.93;;
71298;SDS011;59083;47.974;21.722;2023-06-22T08:36:51;21.30;;;12.13;;
71298;SDS011;59083;47.974;21.722;2023-06-22T08:39:53;17.10;;;12.45;;
71298;SDS011;59083;47.974;21.722;2023-06-22T08:42:54;17.33;;;12.50;;
71298;SDS011;59083;47.974;21.722;2023-06-22T08:45:56;15.45;;;11.73;;
71298;SDS011;59083;47.974;21.722;2023-06-22T08:48:57;20.93;;;13.33;;
71298;SDS011;59083;47.974;21.722;2023-06-22T08:51:58;18.73;;;13.37;;
71298;SDS011;59083;47.974;21.722;2023-06-22T08:55:00;15.27;;;12.37;;
71298;SDS011;59083;47.974;21.722;2023-06-22T08:58:01;16.40;;;12.52;;
71298;SDS011;59083;47.974;21.722;2023-06-22T09:01:02;16.25;;;12.13;;
71298;SDS011;59083;47.974;21.722;2023-06-22T09:04:03;16.80;;;11.80;;
71298;SDS011;59083;47.974;21.722;2023-06-22T09:07:06;21.47;;;12.43;;
71298;SDS011;59083;47.974;21.722;2023-06-22T09:10:08;15.85;;;12.32;;
71298;SDS011;59083;47.974;21.722;2023-06-22T09:13:09;14.95;;;11.77;;
71298;SDS011;59083;47.974;21.722;2023-06-22T09:16:10;16.92;;;12.25;;
71298;SDS011;59083;47.974;21.722;2023-06-22T09:19:12;16.63;;;12.93;;
71298;SDS011;59083;47.974;21.722;2023-06-22T09:22:14;17.47;;;12.87;;
71298;SDS011;59083;47.974;21.722;2023-06-22T09:25:15;18.67;;;13.40;;
71298;SDS011;59083;47.974;21.722;2023-06-22T09:28:17;16.90;;;13.05;;
71298;SDS011;59083;47.974;21.722;2023-06-22T09:31:18;16.30;;;13.20;;
71298;SDS011;59083;47.974;21.722;2023-06-22T09:34:26;17.80;;;13.53;;
71298;SDS011;59083;47.974;21.722;2023-06-22T09:37:27;17.83;;;13.00;;
71298;SDS011;59083;47.974;21.722;2023-06-22T09:40:28;16.37;;;13.57;;
71298;SDS011;59083;47.974;21.722;2023-06-22T09:43:31;18.55;;;13.50;;
71298;SDS011;59083;47.974;21.722;2023-06-22T09:46:33;17.70;;;12.90;;
71298;SDS011;59083;47.974;21.722;2023-06-22T09:49:34;16.47;;;12.73;;
71298;SDS011;59083;47.974;21.722;2023-06-22T09:52:35;16.70;;;13.67;;
71298;SDS011;59083;47.974;21.722;2023-06-22T09:55:37;20.95;;;16.17;;
71298;SDS011;59083;47.974;21.722;2023-06-22T09:58:38;17.30;;;12.73;;
71298;SDS011;59083;47.974;21.722;2023-06-22T10:01:39;16.83;;;12.45;;
71298;SDS011;59083;47.974;21.722;2023-06-22T10:04:41;21.63;;;12.97;;
71298;SDS011;59083;47.974;21.722;2023-06-22T10:07:42;18.97;;;12.80;;
71298;SDS011;59083;47.974;21.722;2023-06-22T10:10:44;16.73;;;12.90;;
71298;SDS011;59083;47.974;21.722;2023-06-22T10:13:45;16.48;;;12.00;;
71298;SDS011;59083;47.974;21.722;2023-06-22T10:16:47;15.00;;;11.95;;
71298;SDS011;59083;47.974;21.722;2023-06-22T10:19:49;16.70;;;12.40;;
71298;SDS011;59083;47.974;21.722;2023-06-22T10:22:50;17.57;;;13.27;;
71298;SDS011;59083;47.974;21.722;2023-06-22T10:25:51;18.85;;;12.55;;
71298;SDS011;59083;47.974;21.722;2023-06-22T10:28:53;17.62;;;13.23;;
71298;SDS011;59083;47.974;21.722;2023-06-22T10:31:54;21.75;;;13.30;;
71298;SDS011;59083;47.974;21.722;2023-06-22T10:34:55;17.60;;;13.30;;
71298;SDS011;59083;47.974;21.722;2023-06-22T10:37:56;16.37;;;13.20;;
71298;SDS011;59083;47.974;21.722;2023-06-22T10:40:57;24.30;;;13.13;;
71298;SDS011;59083;47.974;21.722;2023-06-22T10:43:58;18.83;;;12.27;;
71298;SDS011;59083;47.974;21.722;2023-06-22T10:47:00;17.73;;;11.90;;
71298;SDS011;59083;47.974;21.722;2023-06-22T10:50:01;15.83;;;12.60;;
71298;SDS011;59083;47.974;21.722;2023-06-22T10:53:03;17.17;;;12.90;;
71298;SDS011;59083;47.974;21.722;2023-06-22T10:56:04;17.40;;;12.80;;
71298;SDS011;59083;47.974;21.722;2023-06-22T10:59:06;17.98;;;12.27;;
71298;SDS011;59083;47.974;21.722;2023-06-22T11:02:07;15.50;;;11.98;;
71298;SDS011;59083;47.974;21.722;2023-06-22T11:05:08;17.90;;;12.43;;
71298;SDS011;59083;47.974;21.722;2023-06-22T11:08:10;17.63;;;12.10;;
71298;SDS011;59083;47.974;21.722;2023-06-22T11:11:11;17.80;;;12.10;;
71298;SDS011;59083;47.974;21.722;2023-06-22T11:14:12;19.25;;;11.30;;
71298;SDS011;59083;47.974;21.722;2023-06-22T11:17:13;16.02;;;11.93;;
71298;SDS011;59083;47.974;21.722;2023-06-22T11:20:15;15.73;;;11.97;;
71298;SDS011;59083;47.974;21.722;2023-06-22T11:23:16;15.10;;;11.63;;
71298;SDS011;59083;47.974;21.722;2023-06-22T11:26:17;14.95;;;12.20;;
71298;SDS011;59083;47.974;21.722;2023-06-22T11:29:18;15.60;;;11.27;;
71298;SDS011;59083;47.974;21.722;2023-06-22T11:32:19;15.18;;;11.55;;
71298;SDS011;59083;47.974;21.722;2023-06-22T11:35:21;17.87;;;11.20;;
71298;SDS011;59083;47.974;21.722;2023-06-22T11:38:22;19.00;;;11.17;;
71298;SDS011;59083;47.974;21.722;2023-06-22T11:41:23;16.87;;;11.60;;
71298;SDS011;59083;47.974;21.722;2023-06-22T11:44:24;15.90;;;11.27;;
71298;SDS011;59083;47.974;21.722;2023-06-22T11:47:26;17.33;;;11.50;;
71298;SDS011;59083;47.974;21.722;2023-06-22T11:50:27;14.53;;;11.30;;
71298;SDS011;59083;47.974;21.722;2023-06-22T11:53:31;14.53;;;11.40;;
71298;SDS011;59083;47.974;21.722;2023-06-22T11:56:32;15.82;;;12.07;;
71298;SDS011;59083;47.974;21.722;2023-06-22T11:59:34;15.73;;;11.20;;
71298;SDS011;59083;47.974;21.722;2023-06-22T12:02:35;15.07;;;11.70;;
71298;SDS011;59083;47.974;21.722;2023-06-22T12:05:36;15.97;;;11.53;;
71298;SDS011;59083;47.974;21.722;2023-06-22T12:08:37;18.50;;;12.40;;
71298;SDS011;59083;47.974;21.722;2023-06-22T12:11:39;19.20;;;11.52;;
71298;SDS011;59083;47.974;21.722;2023-06-22T12:14:40;16.90;;;12.52;;
71298;SDS011;59083;47.974;21.722;2023-06-22T12:17:41;17.15;;;11.82;;
71298;SDS011;59083;47.974;21.722;2023-06-22T12:20:42;19.77;;;11.68;;
71298;SDS011;59083;47.974;21.722;2023-06-22T12:23:43;16.03;;;11.73;;
71298;SDS011;59083;47.974;21.722;2023-06-22T12:26:44;23.38;;;19.30;;
71298;SDS011;59083;47.974;21.722;2023-06-22T12:29:46;17.20;;;12.15;;
71298;SDS011;59083;47.974;21.722;2023-06-22T12:32:48;15.32;;;11.48;;
71298;SDS011;59083;47.974;21.722;2023-06-22T12:35:50;14.10;;;11.20;;
71298;SDS011;59083;47.974;21.722;2023-06-22T12:38:51;14.97;;;11.67;;
71298;SDS011;59083;47.974;21.722;2023-06-22T12:41:52;16.17;;;11.98;;
71298;SDS011;59083;47.974;21.722;2023-06-22T12:44:53;16.55;;;10.70;;
71298;SDS011;59083;47.974;21.722;2023-06-22T12:47:55;15.98;;;10.88;;
71298;SDS011;59083;47.974;21.722;2023-06-22T12:50:56;18.03;;;12.80;;
71298;SDS011;59083;47.974;21.722;2023-06-22T12:53:57;16.33;;;12.10;;
71298;SDS011;59083;47.974;21.722;2023-06-22T12:56:58;16.27;;;10.32;;
71298;SDS011;59083;47.974;21.722;2023-06-22T13:00:00;15.20;;;11.00;;
71298;SDS011;59083;47.974;21.722;2023-06-22T13:03:01;13.57;;;10.60;;
71298;SDS011;59083;47.974;21.722;2023-06-22T13:06:03;15.75;;;10.68;;
71298;SDS011;59083;47.974;21.722;2023-06-22T13:09:04;13.93;;;10.43;;
71298;SDS011;59083;47.974;21.722;2023-06-22T13:12:06;15.77;;;10.80;;
71298;SDS011;59083;47.974;21.722;2023-06-22T13:15:07;13.80;;;10.60;;
71298;SDS011;59083;47.974;21.722;2023-06-22T13:18:09;22.50;;;11.25;;
71298;SDS011;59083;47.974;21.722;2023-06-22T13:21:10;14.53;;;10.53;;
71298;SDS011;59083;47.974;21.722;2023-06-22T13:24:11;16.77;;;10.43;;
71298;SDS011;59083;47.974;21.722;2023-06-22T13:27:12;13.50;;;10.15;;
71298;SDS011;59083;47.974;21.722;2023-06-22T13:30:14;15.30;;;10.02;;
71298;SDS011;59083;47.974;21.722;2023-06-22T13:33:15;14.55;;;9.93;;
71298;SDS011;59083;47.974;21.722;2023-06-22T13:36:17;18.40;;;10.07;;
71298;SDS011;59083;47.974;21.722;2023-06-22T13:39:18;16.40;;;10.90;;
71298;SDS011;59083;47.974;21.722;2023-06-22T13:42:20;14.85;;;11.02;;
71298;SDS011;59083;47.974;21.722;2023-06-22T13:45:21;18.83;;;10.50;;
71298;SDS011;59083;47.974;21.722;2023-06-22T13:48:22;13.77;;;10.88;;
71298;SDS011;59083;47.974;21.722;2023-06-22T13:51:24;16.23;;;10.70;;
71298;SDS011;59083;47.974;21.722;2023-06-22T13:54:25;17.93;;;10.63;;
71298;SDS011;59083;47.974;21.722;2023-06-22T13:57:26;16.45;;;11.05;;
71298;SDS011;59083;47.974;21.722;2023-06-22T14:00:28;15.63;;;11.45;;
71298;SDS011;59083;47.974;21.722;2023-06-22T14:03:29;20.48;;;10.75;;
71298;SDS011;59083;47.974;21.722;2023-06-22T14:06:30;14.37;;;9.53;;
71298;SDS011;59083;47.974;21.722;2023-06-22T14:09:31;13.23;;;10.10;;
71298;SDS011;59083;47.974;21.722;2023-06-22T14:12:32;13.75;;;10.10;;
71298;SDS011;59083;47.974;21.722;2023-06-22T14:15:34;15.32;;;9.65;;
71298;SDS011;59083;47.974;21.722;2023-06-22T14:18:35;14.75;;;9.90;;
71298;SDS011;59083;47.974;21.722;2023-06-22T14:21:36;15.33;;;9.73;;
71298;SDS011;59083;47.974;21.722;2023-06-22T14:24:37;11.67;;;9.33;;
71298;SDS011;59083;47.974;21.722;2023-06-22T14:27:38;13.50;;;9.65;;
71298;SDS011;59083;47.974;21.722;2023-06-22T14:30:40;17.65;;;10.00;;
71298;SDS011;59083;47.974;21.722;2023-06-22T14:33:43;14.90;;;10.55;;
71298;SDS011;59083;47.974;21.722;2023-06-22T14:36:46;14.43;;;10.57;;
71298;SDS011;59083;47.974;21.722;2023-06-22T14:39:47;17.13;;;10.10;;
71298;SDS011;59083;47.974;21.722;2023-06-22T14:42:48;17.08;;;10.95;;
71298;SDS011;59083;47.974;21.722;2023-06-22T14:45:50;15.95;;;9.90;;
71298;SDS011;59083;47.974;21.722;2023-06-22T14:48:51;14.25;;;9.57;;
71298;SDS011;59083;47.974;21.722;2023-06-22T14:51:52;14.93;;;10.20;;
71298;SDS011;59083;47.974;21.722;2023-06-22T14:54:53;14.30;;;9.70;;
71298;SDS011;59083;47.974;21.722;2023-06-22T14:57:56;16.42;;;9.90;;
71298;SDS011;59083;47.974;21.722;2023-06-22T15:00:57;15.80;;;9.68;;
71298;SDS011;59083;47.974;21.722;2023-06-22T15:03:58;15.63;;;9.88;;
71298;SDS011;59083;47.974;21.722;2023-06-22T15:06:59;15.63;;;9.98;;
71298;SDS011;59083;47.974;21.722;2023-06-22T15:10:00;14.20;;;9.93;;
71298;SDS011;59083;47.974;21.722;2023-06-22T15:13:01;13.48;;;9.48;;
71298;SDS011;59083;47.974;21.722;2023-06-22T15:16:03;14.57;;;9.98;;
71298;SDS011;59083;47.974;21.722;2023-06-22T15:19:04;14.43;;;10.38;;
71298;SDS011;59083;47.974;21.722;2023-06-22T15:22:06;15.60;;;10.07;;
71298;SDS011;59083;47.974;21.722;2023-06-22T15:25:08;15.73;;;9.70;;
71298;SDS011;59083;47.974;21.722;2023-06-22T15:28:09;15.60;;;9.60;;
71298;SDS011;59083;47.974;21.722;2023-06-22T15:31:10;14.15;;;9.82;;
71298;SDS011;59083;47.974;21.722;2023-06-22T15:34:12;14.73;;;9.70;;
71298;SDS011;59083;47.974;21.722;2023-06-22T15:37:14;15.27;;;10.30;;
71298;SDS011;59083;47.974;21.722;2023-06-22T15:40:17;15.97;;;10.03;;
71298;SDS011;59083;47.974;21.722;2023-06-22T15:43:19;18.05;;;10.43;;
71298;SDS011;59083;47.974;21.722;2023-06-22T15:46:21;14.90;;;10.15;;
71298;SDS011;59083;47.974;21.722;2023-06-22T15:49:22;15.93;;;9.40;;
71298;SDS011;59083;47.974;21.722;2023-06-22T15:52:23;16.80;;;9.70;;
71298;SDS011;59083;47.974;21.722;2023-06-22T15:55:24;16.83;;;10.30;;
71298;SDS011;59083;47.974;21.722;2023-06-22T15:58:27;13.52;;;9.75;;
71298;SDS011;59083;47.974;21.722;2023-06-22T16:01:28;15.55;;;10.27;;
71298;SDS011;59083;47.974;21.722;2023-06-22T16:04:29;16.12;;;9.57;;
71298;SDS011;59083;47.974;21.722;2023-06-22T16:07:30;19.37;;;9.93;;
71298;SDS011;59083;47.974;21.722;2023-06-22T16:10:32;15.37;;;11.00;;
71298;SDS011;59083;47.974;21.722;2023-06-22T16:13:33;14.45;;;10.60;;
71298;SDS011;59083;47.974;21.722;2023-06-22T16:16:35;16.55;;;10.38;;
71298;SDS011;59083;47.974;21.722;2023-06-22T16:19:36;13.85;;;9.93;;
71298;SDS011;59083;47.974;21.722;2023-06-22T16:22:37;15.37;;;10.27;;
71298;SDS011;59083;47.974;21.722;2023-06-22T16:25:38;14.33;;;9.13;;
71298;SDS011;59083;47.974;21.722;2023-06-22T16:28:40;13.65;;;9.55;;
71298;SDS011;59083;47.974;21.722;2023-06-22T16:31:41;16.75;;;9.95;;
71298;SDS011;59083;47.974;21.722;2023-06-22T16:34:42;15.25;;;10.20;;
71298;SDS011;59083;47.974;21.722;2023-06-22T16:37:45;13.35;;;9.30;;
71298;SDS011;59083;47.974;21.722;2023-06-22T16:40:46;13.63;;;9.90;;
71298;SDS011;59083;47.974;21.722;2023-06-22T16:43:47;14.75;;;9.68;;
71298;SDS011;59083;47.974;21.722;2023-06-22T16:46:48;15.13;;;9.75;;
71298;SDS011;59083;47.974;21.722;2023-06-22T16:49:49;13.77;;;9.30;;
71298;SDS011;59083;47.974;21.722;2023-06-22T16:52:51;14.38;;;9.48;;
71298;SDS011;59083;47.974;21.722;2023-06-22T16:55:52;13.07;;;9.30;;
71298;SDS011;59083;47.974;21.722;2023-06-22T16:58:54;15.32;;;9.93;;
71298;SDS011;59083;47.974;21.722;2023-06-22T17:01:56;16.20;;;10.13;;
71298;SDS011;59083;47.974;21.722;2023-06-22T17:04:58;17.35;;;10.30;;
71298;SDS011;59083;47.974;21.722;2023-06-22T17:08:01;15.45;;;9.85;;
71298;SDS011;59083;47.974;21.722;2023-06-22T17:11:07;16.93;;;10.17;;
71298;SDS011;59083;47.974;21.722;2023-06-22T17:14:09;17.10;;;10.02;;
71298;SDS011;59083;47.974;21.722;2023-06-22T17:17:11;14.95;;;9.65;;
71298;SDS011;59083;47.974;21.722;2023-06-22T17:20:14;12.68;;;9.48;;
71298;SDS011;59083;47.974;21.722;2023-06-22T17:23:15;14.90;;;10.20;;
71298;SDS011;59083;47.974;21.722;2023-06-22T17:26:16;13.80;;;10.23;;
71298;SDS011;59083;47.974;21.722;2023-06-22T17:29:18;14.30;;;9.85;;
71298;SDS011;59083;47.974;21.722;2023-06-22T17:32:19;16.25;;;10.27;;
71298;SDS011;59083;47.974;21.722;2023-06-22T17:35:21;14.80;;;11.00;;
71298;SDS011;59083;47.974;21.722;2023-06-22T17:38:22;16.90;;;10.32;;